createdAt,value
2017-10-20T00:00:08.006Z,10.7
2017-10-20T00:05:02.610Z,10.7
2017-10-20T00:10:02.926Z,10.7
2017-10-20T00:15:03.058Z,10.7
2017-10-20T00:20:35.798Z,10.7
2017-10-20T00:25:20.308Z,10.7
2017-10-20T00:30:05.025Z,10.6
2017-10-20T00:35:18.395Z,10.6
2017-10-20T00:40:02.502Z,10.6
2017-10-20T00:45:12.873Z,10.5
2017-10-20T00:50:07.642Z,10.5
2017-10-20T00:55:05.794Z,10.4
2017-10-20T01:00:05.625Z,10.4
2017-10-20T01:05:05.347Z,10.4
2017-10-20T01:10:25.903Z,10.4
2017-10-20T01:15:20.062Z,10.4
2017-10-20T01:20:05.726Z,10.3
2017-10-20T01:25:07.971Z,10.3
2017-10-20T01:30:10.314Z,10.2
2017-10-20T01:35:22.675Z,10.2
2017-10-20T01:40:02.806Z,10.2
2017-10-20T01:45:13.050Z,10.1
2017-10-20T01:50:07.907Z,10.1
2017-10-20T01:55:07.571Z,10
2017-10-20T02:05:23.247Z,9.9
2017-10-20T02:10:17.583Z,9.8
2017-10-20T02:15:07.612Z,9.8
2017-10-20T02:20:12.528Z,9.8
2017-10-20T02:25:10.674Z,9.7
2017-10-20T02:30:02.888Z,9.7
2017-10-20T02:35:10.164Z,9.7
2017-10-20T02:40:07.916Z,9.7
2017-10-20T02:45:05.537Z,9.6
2017-10-20T02:50:02.811Z,9.6
2017-10-20T02:55:27.801Z,9.6
2017-10-20T03:00:03.302Z,9.6
2017-10-20T03:05:18.144Z,9.6
2017-10-20T03:10:08.428Z,9.5
2017-10-20T03:15:07.428Z,9.4
2017-10-20T03:20:08.182Z,9.4
2017-10-20T03:25:33.114Z,9.3
2017-10-20T03:30:02.531Z,9.4
2017-10-20T03:35:10.804Z,9.3
2017-10-20T03:40:32.821Z,9.3
2017-10-20T03:45:05.127Z,9.2
2017-10-20T03:50:07.455Z,9.2
2017-10-20T03:55:08.033Z,9.2
2017-10-20T04:00:12.842Z,9.2
2017-10-20T04:05:03.270Z,9.2
2017-10-20T04:10:07.641Z,9.1
2017-10-20T04:15:22.926Z,9.1
2017-10-20T04:20:07.535Z,9.1
2017-10-20T04:25:03.068Z,9.1
2017-10-20T04:30:02.860Z,9.1
2017-10-20T04:35:04.989Z,9.2
2017-10-20T04:40:05.236Z,9.2
2017-10-20T04:45:10.443Z,9.3
2017-10-20T04:50:02.641Z,9.3
2017-10-20T04:55:20.982Z,9.3
2017-10-20T05:00:10.635Z,9.5
2017-10-20T05:05:02.708Z,9.4
2017-10-20T05:10:05.594Z,9.5
2017-10-20T05:15:08.146Z,9.6
2017-10-20T05:20:02.857Z,9.5
2017-10-20T05:25:05.027Z,9.6
2017-10-20T05:30:03.300Z,9.6
2017-10-20T05:35:02.990Z,9.7
2017-10-20T05:40:03.262Z,9.7
2017-10-20T05:45:10.123Z,9.7
2017-10-20T05:50:03.301Z,9.7
2017-10-20T05:55:02.957Z,9.7
2017-10-20T06:00:02.799Z,9.7
2017-10-20T06:05:22.656Z,9.6
2017-10-20T06:10:02.620Z,9.6
2017-10-20T06:15:07.876Z,9.5
2017-10-20T06:20:10.231Z,9.6
2017-10-20T06:25:03.272Z,9.5
2017-10-20T06:30:05.648Z,9.5
2017-10-20T06:35:22.947Z,9.6
2017-10-20T06:40:13.143Z,9.7
2017-10-20T06:45:20.836Z,9.7
2017-10-20T06:50:07.997Z,9.8
2017-10-20T06:55:05.126Z,9.8
2017-10-20T07:00:02.443Z,9.8
2017-10-20T07:05:10.684Z,9.9
2017-10-20T07:10:02.419Z,9.9
2017-10-20T07:15:05.139Z,10.2
2017-10-20T07:25:03.134Z,10.4
2017-10-20T07:30:05.501Z,10.7
2017-10-20T07:35:07.716Z,10.8
2017-10-20T07:40:05.447Z,10.9
2017-10-20T07:45:08.207Z,11
2017-10-20T07:50:02.988Z,11
2017-10-20T07:55:05.311Z,11.2
2017-10-20T08:00:02.550Z,11.2
2017-10-20T08:05:08.355Z,11.4
2017-10-20T08:10:30.452Z,11.6
2017-10-20T08:15:05.388Z,11.8
2017-10-20T08:20:05.270Z,11.8
2017-10-20T08:25:02.479Z,11.8
2017-10-20T08:30:05.846Z,12.1
2017-10-20T08:35:03.081Z,12
2017-10-20T08:40:07.564Z,12.2
2017-10-20T08:45:07.875Z,12.3
2017-10-20T08:50:07.814Z,12.5
2017-10-20T08:55:22.723Z,12.7
2017-10-20T09:00:02.380Z,12.7
2017-10-20T09:05:03.160Z,12.8
2017-10-20T09:10:02.571Z,12.9
2017-10-20T09:15:05.428Z,13.4
2017-10-20T09:20:05.288Z,13.6
2017-10-20T09:25:02.642Z,13.6
2017-10-20T09:30:02.574Z,13.8
2017-10-20T09:35:02.527Z,14.1
2017-10-20T09:40:10.602Z,14.5
2017-10-20T09:45:08.408Z,14.8
2017-10-20T09:50:08.366Z,14.9
2017-10-20T09:55:10.824Z,15.1
2017-10-20T10:00:18.354Z,15.2
2017-10-20T10:05:08.237Z,15.3
2017-10-20T10:10:05.174Z,15.3
2017-10-20T10:15:05.670Z,15.4
2017-10-20T10:20:13.274Z,15.5
2017-10-20T10:25:05.616Z,15.5
2017-10-20T10:30:05.698Z,15.5
2017-10-20T10:35:03.130Z,15.5
2017-10-20T10:40:07.779Z,15.6
2017-10-20T10:45:03.172Z,15.6
2017-10-20T10:50:05.713Z,15.7
2017-10-20T10:55:10.795Z,15.8
2017-10-20T11:00:05.760Z,15.9
2017-10-20T11:05:08.307Z,15.9
2017-10-20T11:10:28.041Z,15.9
2017-10-20T11:15:05.780Z,15.9
2017-10-20T11:20:10.847Z,15.9
2017-10-20T11:25:03.293Z,15.9
2017-10-20T11:30:08.366Z,15.8
2017-10-20T11:35:07.408Z,15.7
2017-10-20T11:40:05.516Z,15.8
2017-10-20T11:45:02.493Z,15.8
2017-10-20T11:50:05.056Z,15.8
2017-10-20T11:55:02.561Z,15.8
2017-10-20T12:00:02.611Z,15.9
2017-10-20T12:05:05.125Z,15.9
2017-10-20T12:10:07.567Z,15.9
2017-10-20T12:15:07.745Z,15.8
2017-10-20T12:20:10.333Z,15.8
2017-10-20T12:25:15.421Z,15.8
2017-10-20T12:30:02.808Z,15.8
2017-10-20T12:35:02.879Z,15.8
2017-10-20T12:40:04.918Z,15.7
2017-10-20T12:45:13.059Z,15.8
2017-10-20T12:50:03.049Z,15.8
2017-10-20T12:55:08.116Z,15.9
2017-10-20T13:00:05.670Z,15.9
2017-10-20T13:05:13.290Z,16
2017-10-20T13:10:02.720Z,16
2017-10-20T13:15:03.297Z,16.1
2017-10-20T13:20:04.875Z,16.1
2017-10-20T13:25:02.386Z,16.1
2017-10-20T13:30:22.651Z,16.1
2017-10-20T13:35:02.510Z,16.1
2017-10-20T13:40:05.563Z,16.1
2017-10-20T13:45:02.588Z,16.1
2017-10-20T13:50:02.611Z,16.1
2017-10-20T13:55:05.144Z,16
2017-10-20T14:00:05.209Z,16
2017-10-20T14:05:07.814Z,16
2017-10-20T14:10:11.007Z,16
2017-10-20T14:15:18.127Z,15.9
2017-10-20T14:20:05.517Z,15.9
2017-10-20T14:25:05.595Z,15.9
2017-10-20T14:30:15.788Z,15.9
2017-10-20T14:35:15.810Z,15.9
2017-10-20T14:40:15.429Z,15.8
2017-10-20T14:45:02.366Z,15.8
2017-10-20T14:50:02.434Z,15.8
2017-10-20T14:55:22.700Z,15.6
2017-10-20T15:00:02.535Z,15.6
2017-10-20T15:05:10.146Z,15.6
2017-10-20T15:15:10.212Z,15.5
2017-10-20T15:20:22.952Z,15.5
2017-10-20T15:25:05.216Z,15.5
2017-10-20T15:30:05.244Z,15.4
2017-10-20T15:35:23.034Z,15.4
2017-10-20T15:40:08.400Z,15.3
2017-10-20T15:45:07.918Z,15.2
2017-10-20T15:50:18.026Z,15.2
2017-10-20T15:55:23.088Z,15.1
2017-10-20T16:00:05.414Z,15
2017-10-20T16:05:02.884Z,15
2017-10-20T16:10:02.982Z,15
2017-10-20T16:15:12.958Z,14.8
2017-10-20T16:20:10.147Z,14.8
2017-10-20T16:25:05.402Z,14.8
2017-10-20T16:30:02.893Z,14.8
2017-10-20T16:35:10.421Z,14.7
2017-10-20T16:40:03.368Z,14.7
2017-10-20T16:45:10.382Z,14.7
2017-10-20T16:50:15.418Z,14.8
2017-10-20T16:55:02.724Z,14.8
2017-10-20T17:00:10.337Z,14.9
2017-10-20T17:05:10.322Z,14.9
2017-10-20T17:10:15.893Z,14.9
2017-10-20T17:15:05.189Z,14.8
2017-10-20T17:20:07.757Z,14.7
2017-10-20T17:25:15.310Z,14.7
2017-10-20T17:30:02.675Z,14.6
2017-10-20T17:35:05.137Z,14.6
2017-10-20T17:40:05.692Z,14.6
2017-10-20T17:45:02.568Z,14.6
2017-10-20T17:50:02.560Z,14.6
2017-10-20T17:55:05.023Z,14.6
2017-10-20T18:00:02.476Z,14.5
2017-10-20T18:05:02.434Z,14.5
2017-10-20T18:10:13.124Z,14.4
2017-10-20T18:15:02.354Z,14.4
2017-10-20T18:20:16.016Z,14.4
2017-10-20T18:25:10.871Z,14.3
2017-10-20T18:30:05.810Z,14.3
2017-10-20T18:35:05.747Z,14.3
2017-10-20T18:40:05.286Z,14.3
2017-10-20T18:45:18.321Z,14.3
2017-10-20T18:50:05.640Z,14.3
2017-10-20T18:55:08.112Z,14.2
2017-10-20T19:00:18.235Z,14.1
2017-10-20T19:05:02.957Z,14.1
2017-10-20T19:10:04.947Z,14
2017-10-20T19:15:20.545Z,14
2017-10-20T19:20:02.846Z,14
2017-10-20T19:25:02.735Z,14.1
2017-10-20T19:30:05.234Z,14.1
2017-10-20T19:35:05.185Z,14.1
2017-10-20T19:40:05.594Z,14.2
2017-10-20T19:45:04.990Z,14.3
2017-10-20T19:50:02.448Z,14.3
2017-10-20T19:55:15.971Z,14.2
2017-10-20T20:00:08.313Z,14.2
2017-10-20T20:05:05.677Z,14.2
2017-10-20T20:10:02.638Z,14.2
2017-10-20T20:15:03.010Z,14.2
2017-10-20T20:20:08.031Z,14
2017-10-20T20:25:05.401Z,14.1
2017-10-20T20:30:07.891Z,14.1
2017-10-20T20:35:10.329Z,14
2017-10-20T20:40:23.352Z,13.9
2017-10-20T20:50:04.957Z,13.6
2017-10-20T20:55:05.835Z,13.6
2017-10-20T21:00:05.807Z,13.5
2017-10-20T21:05:23.378Z,13.3
2017-10-20T21:10:02.576Z,13.3
2017-10-20T21:15:02.999Z,13.3
2017-10-20T21:20:07.984Z,12.9
2017-10-20T21:25:12.917Z,12.8
2017-10-20T21:30:05.343Z,12.7
2017-10-20T21:35:07.675Z,12.6
2017-10-20T21:40:03.052Z,12.6
2017-10-20T21:45:20.068Z,12.5
2017-10-20T21:50:10.837Z,12.4
2017-10-20T21:55:10.636Z,12.3
2017-10-20T22:00:13.111Z,12.3
2017-10-20T22:05:02.732Z,12.3
2017-10-20T22:10:03.181Z,11.4
2017-10-20T22:15:02.372Z,12.1
2017-10-20T22:20:10.888Z,12.1
2017-10-20T22:25:05.609Z,12.1
2017-10-20T22:30:05.559Z,12
2017-10-20T22:35:02.752Z,12
2017-10-20T22:40:03.231Z,12
2017-10-20T22:45:03.035Z,12
2017-10-20T22:50:05.903Z,11.9
2017-10-20T22:55:03.115Z,11.9
2017-10-20T23:00:05.530Z,11.8
2017-10-20T23:05:15.414Z,11.7
2017-10-20T23:10:10.735Z,11.7
2017-10-20T23:15:02.372Z,11.7
2017-10-20T23:25:18.192Z,11.8
2017-10-20T23:30:08.021Z,11.8
2017-10-20T23:35:05.242Z,11.9
2017-10-20T23:40:03.164Z,11.9
2017-10-20T23:45:20.112Z,11.9
2017-10-20T23:50:10.793Z,11.9
2017-10-20T23:55:03.011Z,11.9
